sensor_id;sensor_type;location;lat;lon;timestamp;pressure;altitude;pressure_sealevel;temperature;humidity
55610;BME280;41486;52.502;13.486;2023-07-09T00:00:50;101514.03;;;20.28;57.16
55610;BME280;41486;52.502;13.486;2023-07-09T00:03:18;101507.94;;;20.52;56.16
55610;BME280;41486;52.502;13.486;2023-07-09T00:05:48;101515.59;;;20.82;55.01
55610;BME280;41486;52.502;13.486;2023-07-09T00:08:25;101518.09;;;20.40;56.85
55610;BME280;41486;52.502;13.486;2023-07-09T00:10:54;101517.59;;;20.45;56.92
55610;BME280;41486;52.502;13.486;2023-07-09T00:13:24;101521.19;;;20.27;57.80
55610;BME280;41486;52.502;13.486;2023-07-09T00:15:56;101517.44;;;20.38;57.30
55610;BME280;41486;52.502;13.486;2023-07-09T00:18:25;101506.31;;;20.68;55.74
55610;BME280;41486;52.502;13.486;2023-07-09T00:20:53;101518.91;;;20.75;55.25
55610;BME280;41486;52.502;13.486;2023-07-09T00:23:21;101516.41;;;20.74;55.77
55610;BME280;41486;52.502;13.486;2023-07-09T00:25:49;101517.94;;;20.85;55.02
55610;BME280;41486;52.502;13.486;2023-07-09T00:28:17;101516.66;;;20.54;56.79
55610;BME280;41486;52.502;13.486;2023-07-09T00:30:47;101512.28;;;20.53;57.02
55610;BME280;41486;52.502;13.486;2023-07-09T00:33:17;101516.94;;;20.43;57.77
55610;BME280;41486;52.502;13.486;2023-07-09T00:35:47;101503.03;;;20.39;58.43
55610;BME280;41486;52.502;13.486;2023-07-09T00:38:19;101508.53;;;20.29;58.89
55610;BME280;41486;52.502;13.486;2023-07-09T00:40:56;101501.16;;;20.23;58.95
55610;BME280;41486;52.502;13.486;2023-07-09T00:43:29;101499.16;;;20.25;58.84
55610;BME280;41486;52.502;13.486;2023-07-09T00:46:16;101491.25;;;20.15;59.90
55610;BME280;41486;52.502;13.486;2023-07-09T00:48:47;101487.00;;;20.39;58.29
55610;BME280;41486;52.502;13.486;2023-07-09T00:51:20;101492.50;;;20.29;58.63
55610;BME280;41486;52.502;13.486;2023-07-09T00:53:50;101491.84;;;20.78;56.86
55610;BME280;41486;52.502;13.486;2023-07-09T00:56:24;101490.91;;;20.53;58.08
55610;BME280;41486;52.502;13.486;2023-07-09T00:58:58;101489.09;;;20.62;57.37
55610;BME280;41486;52.502;13.486;2023-07-09T01:01:32;101481.22;;;20.09;60.00
55610;BME280;41486;52.502;13.486;2023-07-09T01:04:05;101476.38;;;20.13;59.83
55610;BME280;41486;52.502;13.486;2023-07-09T01:06:38;101487.66;;;20.33;59.35
55610;BME280;41486;52.502;13.486;2023-07-09T01:09:07;101478.50;;;20.01;60.54
55610;BME280;41486;52.502;13.486;2023-07-09T01:11:36;101475.66;;;19.94;60.90
55610;BME280;41486;52.502;13.486;2023-07-09T01:14:07;101472.13;;;19.94;60.87
55610;BME280;41486;52.502;13.486;2023-07-09T01:16:39;101488.88;;;20.04;60.48
55610;BME280;41486;52.502;13.486;2023-07-09T01:19:09;101490.63;;;20.22;59.96
55610;BME280;41486;52.502;13.486;2023-07-09T01:21:42;101486.59;;;20.17;59.78
55610;BME280;41486;52.502;13.486;2023-07-09T01:24:12;101489.09;;;20.19;60.13
55610;BME280;41486;52.502;13.486;2023-07-09T01:26:41;101485.88;;;19.81;62.56
55610;BME280;41486;52.502;13.486;2023-07-09T01:29:10;101489.19;;;19.75;63.01
55610;BME280;41486;52.502;13.486;2023-07-09T01:31:39;101481.53;;;19.80;62.44
55610;BME280;41486;52.502;13.486;2023-07-09T01:34:07;101495.19;;;20.38;59.63
55610;BME280;41486;52.502;13.486;2023-07-09T01:36:35;101493.38;;;20.04;61.28
55610;BME280;41486;52.502;13.486;2023-07-09T01:39:07;101491.38;;;20.06;61.17
55610;BME280;41486;52.502;13.486;2023-07-09T01:41:35;101498.72;;;20.04;61.61
55610;BME280;41486;52.502;13.486;2023-07-09T01:44:03;101485.69;;;19.56;64.27
55610;BME280;41486;52.502;13.486;2023-07-09T01:46:31;101492.06;;;19.37;66.03
55610;BME280;41486;52.502;13.486;2023-07-09T01:48:59;101483.19;;;19.28;66.56
55610;BME280;41486;52.502;13.486;2023-07-09T01:51:28;101490.13;;;19.65;64.67
55610;BME280;41486;52.502;13.486;2023-07-09T01:53:57;101487.97;;;19.69;64.15
55610;BME280;41486;52.502;13.486;2023-07-09T01:56:27;101488.97;;;19.23;67.08
55610;BME280;41486;52.502;13.486;2023-07-09T01:58:56;101484.47;;;19.24;66.76
55610;BME280;41486;52.502;13.486;2023-07-09T02:01:28;101482.72;;;19.33;66.09
55610;BME280;41486;52.502;13.486;2023-07-09T02:03:57;101484.16;;;19.27;66.75
55610;BME280;41486;52.502;13.486;2023-07-09T02:06:25;101483.41;;;18.99;68.98
55610;BME280;41486;52.502;13.486;2023-07-09T02:08:55;101475.34;;;19.27;68.03
55610;BME280;41486;52.502;13.486;2023-07-09T02:11:22;101484.59;;;19.85;64.33
55610;BME280;41486;52.502;13.486;2023-07-09T02:13:52;101488.59;;;19.00;69.54
55610;BME280;41486;52.502;13.486;2023-07-09T02:16:20;101483.31;;;18.90;70.41
55610;BME280;41486;52.502;13.486;2023-07-09T02:18:49;101482.78;;;19.67;66.05
55610;BME280;41486;52.502;13.486;2023-07-09T02:21:17;101491.06;;;19.82;64.85
55610;BME280;41486;52.502;13.486;2023-07-09T02:23:45;101486.44;;;19.04;69.36
55610;BME280;41486;52.502;13.486;2023-07-09T02:26:13;101496.38;;;18.84;71.31
55610;BME280;41486;52.502;13.486;2023-07-09T02:28:41;101494.94;;;18.89;71.22
55610;BME280;41486;52.502;13.486;2023-07-09T02:31:11;101490.47;;;18.90;71.04
55610;BME280;41486;52.502;13.486;2023-07-09T02:33:40;101489.28;;;19.65;66.17
55610;BME280;41486;52.502;13.486;2023-07-09T02:36:08;101492.13;;;19.45;67.47
55610;BME280;41486;52.502;13.486;2023-07-09T02:38:36;101491.59;;;18.87;70.99
55610;BME280;41486;52.502;13.486;2023-07-09T02:41:04;101493.25;;;18.98;70.67
55610;BME280;41486;52.502;13.486;2023-07-09T02:43:32;101492.81;;;18.75;71.91
55610;BME280;41486;52.502;13.486;2023-07-09T02:46:00;101491.88;;;18.94;70.75
55610;BME280;41486;52.502;13.486;2023-07-09T02:48:30;101505.19;;;19.12;69.89
55610;BME280;41486;52.502;13.486;2023-07-09T02:50:58;101496.38;;;18.94;71.34
55610;BME280;41486;52.502;13.486;2023-07-09T02:53:27;101502.53;;;18.94;71.37
55610;BME280;41486;52.502;13.486;2023-07-09T02:55:56;101504.63;;;18.72;73.06
55610;BME280;41486;52.502;13.486;2023-07-09T02:58:24;101497.88;;;19.14;70.39
55610;BME280;41486;52.502;13.486;2023-07-09T03:00:52;101506.00;;;19.49;68.42
55610;BME280;41486;52.502;13.486;2023-07-09T03:03:20;101499.19;;;19.10;70.33
55610;BME280;41486;52.502;13.486;2023-07-09T03:05:49;101505.34;;;19.29;69.50
55610;BME280;41486;52.502;13.486;2023-07-09T03:08:17;101500.94;;;19.01;70.93
55610;BME280;41486;52.502;13.486;2023-07-09T03:10:45;101506.41;;;18.54;74.06
55610;BME280;41486;52.502;13.486;2023-07-09T03:13:13;101514.59;;;18.70;73.10
55610;BME280;41486;52.502;13.486;2023-07-09T03:15:41;101515.47;;;18.61;74.39
55610;BME280;41486;52.502;13.486;2023-07-09T03:18:09;101510.31;;;18.59;74.39
55610;BME280;41486;52.502;13.486;2023-07-09T03:20:37;101501.97;;;18.44;75.88
55610;BME280;41486;52.502;13.486;2023-07-09T03:23:08;101506.31;;;18.91;73.07
55610;BME280;41486;52.502;13.486;2023-07-09T03:25:40;101502.22;;;18.51;75.72
55610;BME280;41486;52.502;13.486;2023-07-09T03:28:08;101502.16;;;18.61;75.58
55610;BME280;41486;52.502;13.486;2023-07-09T03:30:40;101513.44;;;18.73;74.68
55610;BME280;41486;52.502;13.486;2023-07-09T03:33:08;101514.78;;;18.59;75.08
55610;BME280;41486;52.502;13.486;2023-07-09T03:35:37;101516.03;;;18.65;74.96
55610;BME280;41486;52.502;13.486;2023-07-09T03:38:08;101517.91;;;18.54;77.36
55610;BME280;41486;52.502;13.486;2023-07-09T03:40:37;101520.59;;;18.54;77.66
55610;BME280;41486;52.502;13.486;2023-07-09T03:43:06;101517.69;;;18.66;77.38
55610;BME280;41486;52.502;13.486;2023-07-09T03:45:35;101515.94;;;19.02;74.20
55610;BME280;41486;52.502;13.486;2023-07-09T03:48:05;101514.88;;;19.49;71.30
55610;BME280;41486;52.502;13.486;2023-07-09T03:50:33;101519.22;;;18.96;75.15
55610;BME280;41486;52.502;13.486;2023-07-09T03:53:01;101518.31;;;18.77;76.44
55610;BME280;41486;52.502;13.486;2023-07-09T03:55:30;101521.22;;;19.30;71.85
55610;BME280;41486;52.502;13.486;2023-07-09T03:57:58;101514.34;;;19.28;71.70
55610;BME280;41486;52.502;13.486;2023-07-09T04:00:26;101525.09;;;19.36;71.52
55610;BME280;41486;52.502;13.486;2023-07-09T04:02:54;101517.25;;;19.16;72.58
55610;BME280;41486;52.502;13.486;2023-07-09T04:05:23;101523.22;;;18.82;75.05
55610;BME280;41486;52.502;13.486;2023-07-09T04:07:52;101527.03;;;18.80;75.28
55610;BME280;41486;52.502;13.486;2023-07-09T04:10:20;101531.72;;;18.68;77.33
55610;BME280;41486;52.502;13.486;2023-07-09T04:12:49;101529.22;;;18.66;77.99
55610;BME280;41486;52.502;13.486;2023-07-09T04:15:18;101529.84;;;18.78;76.73
55610;BME280;41486;52.502;13.486;2023-07-09T04:17:46;101525.47;;;19.23;73.42
55610;BME280;41486;52.502;13.486;2023-07-09T04:20:14;101529.75;;;19.34;72.73
55610;BME280;41486;52.502;13.486;2023-07-09T04:22:42;101530.59;;;19.34;72.91
55610;BME280;41486;52.502;13.486;2023-07-09T04:25:11;101536.38;;;19.30;73.75
55610;BME280;41486;52.502;13.486;2023-07-09T04:27:39;101533.09;;;19.36;73.85
55610;BME280;41486;52.502;13.486;2023-07-09T04:30:10;101532.78;;;19.39;73.00
55610;BME280;41486;52.502;13.486;2023-07-09T04:32:42;101531.28;;;19.18;75.18
55610;BME280;41486;52.502;13.486;2023-07-09T04:35:11;101532.66;;;19.22;74.09
55610;BME280;41486;52.502;13.486;2023-07-09T04:37:40;101530.69;;;19.69;70.09
55610;BME280;41486;52.502;13.486;2023-07-09T04:40:09;101528.06;;;19.77;69.99
55610;BME280;41486;52.502;13.486;2023-07-09T04:42:40;101534.44;;;19.58;71.62
55610;BME280;41486;52.502;13.486;2023-07-09T04:45:12;101533.53;;;19.67;71.47
55610;BME280;41486;52.502;13.486;2023-07-09T04:47:40;101539.94;;;20.01;69.09
55610;BME280;41486;52.502;13.486;2023-07-09T04:50:09;101533.34;;;19.69;70.96
55610;BME280;41486;52.502;13.486;2023-07-09T04:52:38;101539.31;;;19.63;71.01
55610;BME280;41486;52.502;13.486;2023-07-09T04:55:06;101541.75;;;20.27;66.56
55610;BME280;41486;52.502;13.486;2023-07-09T04:57:35;101536.59;;;20.25;66.36
55610;BME280;41486;52.502;13.486;2023-07-09T05:00:05;101541.84;;;20.09;67.49
55610;BME280;41486;52.502;13.486;2023-07-09T05:02:35;101536.19;;;20.46;64.86
55610;BME280;41486;52.502;13.486;2023-07-09T05:05:03;101538.06;;;20.20;66.34
55610;BME280;41486;52.502;13.486;2023-07-09T05:07:32;101534.28;;;20.39;64.98
55610;BME280;41486;52.502;13.486;2023-07-09T05:10:00;101537.41;;;20.26;64.99
55610;BME280;41486;52.502;13.486;2023-07-09T05:12:28;101543.44;;;20.28;64.40
55610;BME280;41486;52.502;13.486;2023-07-09T05:14:56;101540.13;;;20.34;65.15
55610;BME280;41486;52.502;13.486;2023-07-09T05:17:24;101539.59;;;20.30;65.47
55610;BME280;41486;52.502;13.486;2023-07-09T05:19:53;101543.13;;;20.31;65.17
55610;BME280;41486;52.502;13.486;2023-07-09T05:22:21;101539.22;;;20.60;62.94
55610;BME280;41486;52.502;13.486;2023-07-09T05:24:49;101544.38;;;20.53;62.47
55610;BME280;41486;52.502;13.486;2023-07-09T05:27:17;101543.03;;;20.49;64.69
55610;BME280;41486;52.502;13.486;2023-07-09T05:29:45;101541.47;;;20.73;63.04
55610;BME280;41486;52.502;13.486;2023-07-09T05:32:13;101535.56;;;20.61;63.94
55610;BME280;41486;52.502;13.486;2023-07-09T05:34:41;101545.78;;;20.65;62.27
55610;BME280;41486;52.502;13.486;2023-07-09T05:37:11;101540.59;;;20.72;63.10
55610;BME280;41486;52.502;13.486;2023-07-09T05:39:39;101544.66;;;20.76;63.91
55610;BME280;41486;52.502;13.486;2023-07-09T05:42:07;101546.94;;;20.71;65.51
55610;BME280;41486;52.502;13.486;2023-07-09T05:44:35;101548.69;;;20.80;64.27
55610;BME280;41486;52.502;13.486;2023-07-09T05:47:03;101553.94;;;21.07;63.51
55610;BME280;41486;52.502;13.486;2023-07-09T05:49:31;101550.44;;;21.39;60.84
55610;BME280;41486;52.502;13.486;2023-07-09T05:51:59;101547.94;;;21.30;61.71
55610;BME280;41486;52.502;13.486;2023-07-09T05:54:29;101550.78;;;21.36;63.08
55610;BME280;41486;52.502;13.486;2023-07-09T05:56:57;101546.94;;;21.22;62.81
55610;BME280;41486;52.502;13.486;2023-07-09T05:59:25;101542.09;;;21.26;63.90
55610;BME280;41486;52.502;13.486;2023-07-09T06:01:53;101553.31;;;21.38;64.35
55610;BME280;41486;52.502;13.486;2023-07-09T06:04:21;101547.09;;;21.37;64.40
55610;BME280;41486;52.502;13.486;2023-07-09T06:06:49;101548.28;;;21.51;63.91
55610;BME280;41486;52.502;13.486;2023-07-09T06:09:17;101548.81;;;21.63;61.87
55610;BME280;41486;52.502;13.486;2023-07-09T06:11:46;101551.66;;;21.70;61.84
55610;BME280;41486;52.502;13.486;2023-07-09T06:14:14;101548.97;;;21.70;62.02
55610;BME280;41486;52.502;13.486;2023-07-09T06:16:43;101548.63;;;21.81;61.74
55610;BME280;41486;52.502;13.486;2023-07-09T06:19:11;101548.59;;;21.98;60.59
55610;BME280;41486;52.502;13.486;2023-07-09T06:21:40;101552.75;;;22.09;59.89
55610;BME280;41486;52.502;13.486;2023-07-09T06:24:08;101540.66;;;22.21;58.57
55610;BME280;41486;52.502;13.486;2023-07-09T06:26:36;101548.38;;;22.16;58.67
55610;BME280;41486;52.502;13.486;2023-07-09T06:29:05;101553.84;;;22.31;58.04
55610;BME280;41486;52.502;13.486;2023-07-09T06:31:33;101548.69;;;22.29;59.29
55610;BME280;41486;52.502;13.486;2023-07-09T06:34:03;101556.69;;;22.37;57.69
55610;BME280;41486;52.502;13.486;2023-07-09T06:36:31;101555.31;;;22.50;56.93
55610;BME280;41486;52.502;13.486;2023-07-09T06:38:59;101562.66;;;22.56;55.74
55610;BME280;41486;52.502;13.486;2023-07-09T06:41:28;101563.47;;;22.65;55.53
55610;BME280;41486;52.502;13.486;2023-07-09T06:43:56;101563.25;;;22.75;55.40
55610;BME280;41486;52.502;13.486;2023-07-09T06:46:26;101568.78;;;22.81;56.25
55610;BME280;41486;52.502;13.486;2023-07-09T06:48:54;101574.63;;;22.85;56.98
55610;BME280;41486;52.502;13.486;2023-07-09T06:51:22;101564.56;;;22.87;56.38
55610;BME280;41486;52.502;13.486;2023-07-09T06:53:49;101565.50;;;22.94;56.45
55610;BME280;41486;52.502;13.486;2023-07-09T06:56:18;101563.75;;;23.10;55.01
55610;BME280;41486;52.502;13.486;2023-07-09T06:58:46;101571.31;;;23.06;56.15
55610;BME280;41486;52.502;13.486;2023-07-09T07:01:13;101569.72;;;23.20;54.73
55610;BME280;41486;52.502;13.486;2023-07-09T07:03:43;101572.34;;;23.28;54.69
55610;BME280;41486;52.502;13.486;2023-07-09T07:06:11;101568.91;;;23.43;55.24
55610;BME280;41486;52.502;13.486;2023-07-09T07:08:39;101564.16;;;23.45;55.47
55610;BME280;41486;52.502;13.486;2023-07-09T07:11:07;101568.19;;;23.49;55.51
55610;BME280;41486;52.502;13.486;2023-07-09T07:13:36;101561.06;;;23.56;53.42
55610;BME280;41486;52.502;13.486;2023-07-09T07:16:06;101566.63;;;23.55;53.26
55610;BME280;41486;52.502;13.486;2023-07-09T07:18:35;101565.69;;;23.62;55.00
55610;BME280;41486;52.502;13.486;2023-07-09T07:21:05;101560.78;;;23.66;55.28
55610;BME280;41486;52.502;13.486;2023-07-09T07:23:34;101568.31;;;23.71;53.90
55610;BME280;41486;52.502;13.486;2023-07-09T07:26:02;101570.09;;;23.78;54.17
55610;BME280;41486;52.502;13.486;2023-07-09T07:28:33;101571.03;;;23.86;54.06
55610;BME280;41486;52.502;13.486;2023-07-09T07:31:05;101572.75;;;24.02;56.47
55610;BME280;41486;52.502;13.486;2023-07-09T07:33:35;101564.31;;;24.20;55.14
55610;BME280;41486;52.502;13.486;2023-07-09T07:36:07;101564.88;;;24.30;53.06
55610;BME280;41486;52.502;13.486;2023-07-09T07:38:38;101568.31;;;24.39;52.48
55610;BME280;41486;52.502;13.486;2023-07-09T07:41:06;101569.97;;;24.40;52.94
55610;BME280;41486;52.502;13.486;2023-07-09T07:43:35;101572.84;;;24.53;51.60
55610;BME280;41486;52.502;13.486;2023-07-09T07:46:03;101570.31;;;24.52;52.63
55610;BME280;41486;52.502;13.486;2023-07-09T07:48:31;101574.78;;;24.75;52.14
55610;BME280;41486;52.502;13.486;2023-07-09T07:51:00;101575.81;;;24.73;52.52
55610;BME280;41486;52.502;13.486;2023-07-09T07:53:31;101571.53;;;24.79;51.57
55610;BME280;41486;52.502;13.486;2023-07-09T07:55:59;101567.06;;;24.86;51.08
55610;BME280;41486;52.502;13.486;2023-07-09T07:58:31;101569.75;;;24.86;50.00
55610;BME280;41486;52.502;13.486;2023-07-09T08:00:59;101571.28;;;24.96;50.79
55610;BME280;41486;52.502;13.486;2023-07-09T08:03:28;101566.31;;;25.14;49.50
55610;BME280;41486;52.502;13.486;2023-07-09T08:05:57;101564.81;;;25.12;50.70
55610;BME280;41486;52.502;13.486;2023-07-09T08:08:29;101565.94;;;25.17;51.00
55610;BME280;41486;52.502;13.486;2023-07-09T08:11:02;101569.38;;;25.33;50.83
55610;BME280;41486;52.502;13.486;2023-07-09T08:13:33;101570.75;;;25.44;49.78
55610;BME280;41486;52.502;13.486;2023-07-09T08:16:02;101564.72;;;25.42;49.79
55610;BME280;41486;52.502;13.486;2023-07-09T08:18:31;101567.72;;;25.54;48.89
55610;BME280;41486;52.502;13.486;2023-07-09T08:21:00;101571.72;;;25.58;49.69
55610;BME280;41486;52.502;13.486;2023-07-09T08:23:28;101568.66;;;25.67;49.82
55610;BME280;41486;52.502;13.486;2023-07-09T08:25:58;101572.97;;;25.90;46.72
55610;BME280;41486;52.502;13.486;2023-07-09T08:28:28;101566.84;;;26.03;47.08
55610;BME280;41486;52.502;13.486;2023-07-09T08:30:57;101571.84;;;26.06;45.66
55610;BME280;41486;52.502;13.486;2023-07-09T08:33:25;101572.50;;;26.08;45.73
55610;BME280;41486;52.502;13.486;2023-07-09T08:35:54;101568.59;;;26.18;45.54
55610;BME280;41486;52.502;13.486;2023-07-09T08:38:26;101567.84;;;26.24;46.77
55610;BME280;41486;52.502;13.486;2023-07-09T08:40:58;101558.53;;;26.33;45.91
55610;BME280;41486;52.502;13.486;2023-07-09T08:43:34;101571.78;;;26.28;47.28
55610;BME280;41486;52.502;13.486;2023-07-09T08:46:07;101560.19;;;26.27;45.94
55610;BME280;41486;52.502;13.486;2023-07-09T08:48:40;101565.94;;;26.59;43.06
55610;BME280;41486;52.502;13.486;2023-07-09T08:51:16;101562.59;;;26.64;44.85
55610;BME280;41486;52.502;13.486;2023-07-09T08:53:49;101563.41;;;26.58;44.40
55610;BME280;41486;52.502;13.486;2023-07-09T08:56:18;101561.13;;;26.55;44.78
55610;BME280;41486;52.502;13.486;2023-07-09T08:58:49;101551.63;;;26.66;46.07
55610;BME280;41486;52.502;13.486;2023-07-09T09:01:20;101560.34;;;26.74;44.57
55610;BME280;41486;52.502;13.486;2023-07-09T09:03:52;101565.84;;;27.01;43.14
55610;BME280;41486;52.502;13.486;2023-07-09T09:06:26;101560.03;;;26.98;43.86
55610;BME280;41486;52.502;13.486;2023-07-09T09:09:01;101561.94;;;27.17;42.21
55610;BME280;41486;52.502;13.486;2023-07-09T09:11:38;101561.94;;;27.11;43.06
55610;BME280;41486;52.502;13.486;2023-07-09T09:14:19;101552.38;;;27.21;43.68
55610;BME280;41486;52.502;13.486;2023-07-09T09:16:52;101552.59;;;27.33;42.53
55610;BME280;41486;52.502;13.486;2023-07-09T09:19:23;101548.25;;;27.39;43.00
55610;BME280;41486;52.502;13.486;2023-07-09T09:21:58;101555.50;;;27.38;43.21
55610;BME280;41486;52.502;13.486;2023-07-09T09:24:35;101549.94;;;27.47;42.72
55610;BME280;41486;52.502;13.486;2023-07-09T09:27:04;101555.53;;;27.45;41.05
55610;BME280;41486;52.502;13.486;2023-07-09T09:29:37;101553.03;;;27.70;37.77
55610;BME280;41486;52.502;13.486;2023-07-09T09:32:22;101557.81;;;27.75;39.63
55610;BME280;41486;52.502;13.486;2023-07-09T09:34:51;101556.97;;;27.95;37.44
55610;BME280;41486;52.502;13.486;2023-07-09T09:37:26;101557.16;;;28.00;36.09
55610;BME280;41486;52.502;13.486;2023-07-09T09:39:55;101563.38;;;28.00;35.40
55610;BME280;41486;52.502;13.486;2023-07-09T09:42:42;101559.00;;;28.20;35.76
55610;BME280;41486;52.502;13.486;2023-07-09T09:45:15;101563.81;;;28.11;37.00
55610;BME280;41486;52.502;13.486;2023-07-09T09:47:44;101559.03;;;28.13;38.70
55610;BME280;41486;52.502;13.486;2023-07-09T09:50:14;101554.00;;;28.16;38.53
55610;BME280;41486;52.502;13.486;2023-07-09T09:52:43;101556.53;;;28.11;38.34
55610;BME280;41486;52.502;13.486;2023-07-09T09:55:16;101561.66;;;28.33;35.25
55610;BME280;41486;52.502;13.486;2023-07-09T09:57:49;101553.69;;;28.45;36.48
55610;BME280;41486;52.502;13.486;2023-07-09T10:00:23;101557.22;;;28.45;36.47
55610;BME280;41486;52.502;13.486;2023-07-09T10:02:57;101556.97;;;28.60;35.13
55610;BME280;41486;52.502;13.486;2023-07-09T10:05:32;101556.53;;;28.63;36.84
55610;BME280;41486;52.502;13.486;2023-07-09T10:08:07;101556.72;;;28.75;37.09
55610;BME280;41486;52.502;13.486;2023-07-09T10:10:36;101560.00;;;28.84;37.48
55610;BME280;41486;52.502;13.486;2023-07-09T10:13:12;101558.72;;;28.87;37.37
55610;BME280;41486;52.502;13.486;2023-07-09T10:16:01;101559.44;;;29.07;36.32
55610;BME280;41486;52.502;13.486;2023-07-09T10:18:38;101559.34;;;29.21;36.73
55610;BME280;41486;52.502;13.486;2023-07-09T10:21:14;101559.94;;;29.23;36.77
55610;BME280;41486;52.502;13.486;2023-07-09T10:23:47;101555.88;;;29.64;36.03
55610;BME280;41486;52.502;13.486;2023-07-09T10:26:24;101563.72;;;30.16;35.12
55610;BME280;41486;52.502;13.486;2023-07-09T10:29:23;101558.91;;;29.74;33.84
55610;BME280;41486;52.502;13.486;2023-07-09T10:31:59;101562.38;;;30.07;34.24
55610;BME280;41486;52.502;13.486;2023-07-09T10:34:34;101557.53;;;29.65;33.86
55610;BME280;41486;52.502;13.486;2023-07-09T10:37:24;101557.75;;;30.26;34.13
55610;BME280;41486;52.502;13.486;2023-07-09T10:39:59;101564.56;;;31.15;33.07
55610;BME280;41486;52.502;13.486;2023-07-09T10:42:32;101553.34;;;31.47;31.55
55610;BME280;41486;52.502;13.486;2023-07-09T10:45:09;101560.53;;;31.18;31.78
55610;BME280;41486;52.502;13.486;2023-07-09T10:47:41;101549.78;;;31.58;32.29
55610;BME280;41486;52.502;13.486;2023-07-09T10:50:12;101556.03;;;31.11;32.10
55610;BME280;41486;52.502;13.486;2023-07-09T10:52:46;101547.78;;;31.30;31.60
55610;BME280;41486;52.502;13.486;2023-07-09T10:55:20;101552.63;;;31.16;31.97
55610;BME280;41486;52.502;13.486;2023-07-09T10:57:56;101552.19;;;31.78;31.98
55610;BME280;41486;52.502;13.486;2023-07-09T11:00:33;101552.44;;;32.41;31.21
55610;BME280;41486;52.502;13.486;2023-07-09T11:03:09;101544.47;;;31.99;31.30
55610;BME280;41486;52.502;13.486;2023-07-09T11:05:41;101544.94;;;31.60;31.56
55610;BME280;41486;52.502;13.486;2023-07-09T11:08:12;101556.69;;;31.97;32.03
55610;BME280;41486;52.502;13.486;2023-07-09T11:10:48;101545.53;;;32.22;31.78
55610;BME280;41486;52.502;13.486;2023-07-09T11:13:25;101554.09;;;32.43;31.11
55610;BME280;41486;52.502;13.486;2023-07-09T11:16:14;101547.81;;;33.17;30.48
55610;BME280;41486;52.502;13.486;2023-07-09T11:18:55;101542.13;;;32.44;30.03
55610;BME280;41486;52.502;13.486;2023-07-09T11:21:23;101548.75;;;34.40;28.75
55610;BME280;41486;52.502;13.486;2023-07-09T11:23:53;101551.34;;;34.80;28.08
55610;BME280;41486;52.502;13.486;2023-07-09T11:26:23;101542.94;;;34.59;29.00
55610;BME280;41486;52.502;13.486;2023-07-09T11:28:54;101538.34;;;36.15;26.64
55610;BME280;41486;52.502;13.486;2023-07-09T11:31:34;101544.22;;;37.53;24.88
55610;BME280;41486;52.502;13.486;2023-07-09T11:34:10;101537.66;;;37.44;24.47
55610;BME280;41486;52.502;13.486;2023-07-09T11:36:48;101529.72;;;37.06;25.45
55610;BME280;41486;52.502;13.486;2023-07-09T11:39:20;101528.03;;;37.47;24.79
55610;BME280;41486;52.502;13.486;2023-07-09T11:41:48;101522.31;;;36.76;24.91
55610;BME280;41486;52.502;13.486;2023-07-09T11:44:19;101520.41;;;36.82;24.79
55610;BME280;41486;52.502;13.486;2023-07-09T11:46:54;101523.72;;;36.94;24.70
55610;BME280;41486;52.502;13.486;2023-07-09T11:49:27;101515.75;;;36.98;24.55
55610;BME280;41486;52.502;13.486;2023-07-09T11:52:00;101514.66;;;37.04;25.17
55610;BME280;41486;52.502;13.486;2023-07-09T11:54:34;101515.09;;;35.27;25.95
55610;BME280;41486;52.502;13.486;2023-07-09T11:57:03;101520.75;;;35.10;26.51
55610;BME280;41486;52.502;13.486;2023-07-09T11:59:38;101506.25;;;34.05;26.67
55610;BME280;41486;52.502;13.486;2023-07-09T12:02:14;101512.19;;;37.02;24.17
55610;BME280;41486;52.502;13.486;2023-07-09T12:04:47;101516.44;;;38.81;22.50
55610;BME280;41486;52.502;13.486;2023-07-09T12:07:17;101511.06;;;37.08;23.43
55610;BME280;41486;52.502;13.486;2023-07-09T12:09:48;101516.84;;;38.14;23.32
55610;BME280;41486;52.502;13.486;2023-07-09T12:12:19;101502.53;;;38.17;22.56
55610;BME280;41486;52.502;13.486;2023-07-09T12:14:48;101504.50;;;38.56;22.41
55610;BME280;41486;52.502;13.486;2023-07-09T12:17:16;101511.03;;;38.15;22.05
55610;BME280;41486;52.502;13.486;2023-07-09T12:19:45;101492.41;;;38.92;22.28
55610;BME280;41486;52.502;13.486;2023-07-09T12:22:17;101504.56;;;37.91;22.79
55610;BME280;41486;52.502;13.486;2023-07-09T12:24:48;101489.66;;;36.54;23.60
55610;BME280;41486;52.502;13.486;2023-07-09T12:27:20;101492.44;;;36.64;23.96
55610;BME280;41486;52.502;13.486;2023-07-09T12:29:51;101489.47;;;33.52;27.97
55610;BME280;41486;52.502;13.486;2023-07-09T12:32:19;101485.66;;;33.92;27.85
55610;BME280;41486;52.502;13.486;2023-07-09T12:34:55;101481.16;;;33.64;27.99
55610;BME280;41486;52.502;13.486;2023-07-09T12:37:25;101484.06;;;33.01;28.91
55610;BME280;41486;52.502;13.486;2023-07-09T12:39:55;101478.56;;;33.35;27.60
55610;BME280;41486;52.502;13.486;2023-07-09T12:42:29;101478.72;;;33.28;28.21
55610;BME280;41486;52.502;13.486;2023-07-09T12:44:58;101484.66;;;33.59;28.19
55610;BME280;41486;52.502;13.486;2023-07-09T12:47:27;101474.75;;;33.53;28.34
55610;BME280;41486;52.502;13.486;2023-07-09T12:50:08;101466.97;;;33.28;28.33
55610;BME280;41486;52.502;13.486;2023-07-09T12:52:45;101461.28;;;33.46;27.60
55610;BME280;41486;52.502;13.486;2023-07-09T12:55:21;101464.28;;;33.45;27.53
55610;BME280;41486;52.502;13.486;2023-07-09T12:57:55;101456.50;;;33.19;27.61